sensor_id;sensor_type;location;lat;lon;timestamp;pressure;altitude;pressure_sealevel;temperature;humidity
24558;BME280;12726;49.148;8.582;2023-04-25T00:01:46;99789.03;;;7.93;100.00
24558;BME280;12726;49.148;8.582;2023-04-25T00:04:32;99790.88;;;7.93;100.00
24558;BME280;12726;49.148;8.582;2023-04-25T00:07:18;99792.34;;;7.89;100.00
24558;BME280;12726;49.148;8.582;2023-04-25T00:10:04;99796.47;;;7.84;100.00
24558;BME280;12726;49.148;8.582;2023-04-25T00:12:50;99805.75;;;7.89;100.00
24558;BME280;12726;49.148;8.582;2023-04-25T00:15:37;99806.78;;;7.81;100.00
24558;BME280;12726;49.148;8.582;2023-04-25T00:18:22;99810.28;;;7.75;100.00
24558;BME280;12726;49.148;8.582;2023-04-25T00:21:08;99811.53;;;7.72;100.00
24558;BME280;12726;49.148;8.582;2023-04-25T00:23:55;99808.44;;;7.75;100.00
24558;BME280;12726;49.148;8.582;2023-04-25T00:26:40;99808.44;;;7.75;100.00
24558;BME280;12726;49.148;8.582;2023-04-25T00:29:26;99803.69;;;7.77;100.00
24558;BME280;12726;49.148;8.582;2023-04-25T00:32:12;99804.72;;;7.76;100.00
24558;BME280;12726;49.148;8.582;2023-04-25T00:34:58;99805.53;;;7.83;100.00
24558;BME280;12726;49.148;8.582;2023-04-25T00:37:43;99799.78;;;7.86;100.00
24558;BME280;12726;49.148;8.582;2023-04-25T00:40:29;99799.16;;;7.84;100.00
24558;BME280;12726;49.148;8.582;2023-04-25T00:43:14;99798.09;;;7.92;100.00
24558;BME280;12726;49.148;8.582;2023-04-25T00:46:00;99790.25;;;7.91;100.00
24558;BME280;12726;49.148;8.582;2023-04-25T00:48:47;99795.00;;;7.82;100.00
24558;BME280;12726;49.148;8.582;2023-04-25T00:51:32;99786.56;;;7.85;100.00
24558;BME280;12726;49.148;8.582;2023-04-25T00:54:18;99783.25;;;7.90;100.00
24558;BME280;12726;49.148;8.582;2023-04-25T00:57:03;99776.47;;;7.87;100.00
24558;BME280;12726;49.148;8.582;2023-04-25T00:59:50;99769.84;;;7.90;100.00
24558;BME280;12726;49.148;8.582;2023-04-25T01:02:37;99769.84;;;7.90;100.00
24558;BME280;12726;49.148;8.582;2023-04-25T01:05:23;99760.19;;;7.89;100.00
24558;BME280;12726;49.148;8.582;2023-04-25T01:08:09;99768.84;;;7.84;100.00
24558;BME280;12726;49.148;8.582;2023-04-25T01:10:54;99775.03;;;7.84;100.00
24558;BME280;12726;49.148;8.582;2023-04-25T01:13:40;99771.28;;;7.92;100.00
24558;BME280;12726;49.148;8.582;2023-04-25T01:16:25;99768.84;;;7.84;100.00
24558;BME280;12726;49.148;8.582;2023-04-25T01:19:11;99769.28;;;7.81;100.00
24558;BME280;12726;49.148;8.582;2023-04-25T01:21:58;99763.91;;;7.81;100.00
24558;BME280;12726;49.148;8.582;2023-04-25T01:24:44;99768.66;;;7.79;100.00
24558;BME280;12726;49.148;8.582;2023-04-25T01:27:29;99762.06;;;7.81;100.00
24558;BME280;12726;49.148;8.582;2023-04-25T01:30:15;99772.56;;;7.76;100.00
24558;BME280;12726;49.148;8.582;2023-04-25T01:33:01;99762.69;;;7.77;100.00
24558;BME280;12726;49.148;8.582;2023-04-25T01:35:48;99764.72;;;7.75;100.00
24558;BME280;12726;49.148;8.582;2023-04-25T01:38:35;99768.47;;;7.74;100.00
24558;BME280;12726;49.148;8.582;2023-04-25T01:41:21;99757.13;;;7.72;100.00
24558;BME280;12726;49.148;8.582;2023-04-25T01:44:07;99760.84;;;7.71;100.00
24558;BME280;12726;49.148;8.582;2023-04-25T01:46:52;99759.59;;;7.73;100.00
24558;BME280;12726;49.148;8.582;2023-04-25T01:49:37;99764.34;;;7.71;100.00
24558;BME280;12726;49.148;8.582;2023-04-25T01:52:23;99767.44;;;7.68;100.00
24558;BME280;12726;49.148;8.582;2023-04-25T01:55:10;99763.91;;;7.68;100.00
24558;BME280;12726;49.148;8.582;2023-04-25T01:57:56;99753.81;;;7.70;100.00
24558;BME280;12726;49.148;8.582;2023-04-25T02:00:42;99761.88;;;7.70;100.00
24558;BME280;12726;49.148;8.582;2023-04-25T02:03:29;99763.91;;;7.68;100.00
24558;BME280;12726;49.148;8.582;2023-04-25T02:06:14;99766.22;;;7.64;100.00
24558;BME280;12726;49.148;8.582;2023-04-25T02:08:59;99770.97;;;7.56;100.00
24558;BME280;12726;49.148;8.582;2023-04-25T02:11:46;99767.06;;;7.58;100.00
24558;BME280;12726;49.148;8.582;2023-04-25T02:14:31;99775.28;;;7.63;100.00
24558;BME280;12726;49.148;8.582;2023-04-25T02:17:17;99767.06;;;7.58;100.00
24558;BME280;12726;49.148;8.582;2023-04-25T02:20:03;99764.97;;;7.60;100.00
24558;BME280;12726;49.148;8.582;2023-04-25T02:22:49;99764.97;;;7.67;100.00
24558;BME280;12726;49.148;8.582;2023-04-25T02:25:34;99769.09;;;7.63;100.00
24558;BME280;12726;49.148;8.582;2023-04-25T02:28:21;99766.63;;;7.55;100.00
24558;BME280;12726;49.148;8.582;2023-04-25T02:31:06;99760.84;;;7.64;100.00
24558;BME280;12726;49.148;8.582;2023-04-25T02:33:52;99757.16;;;7.65;100.00
24558;BME280;12726;49.148;8.582;2023-04-25T02:36:37;99762.50;;;7.65;100.00
24558;BME280;12726;49.148;8.582;2023-04-25T02:39:23;99762.91;;;7.56;100.00
24558;BME280;12726;49.148;8.582;2023-04-25T02:42:09;99755.31;;;7.53;100.00
24558;BME280;12726;49.148;8.582;2023-04-25T02:44:55;99748.09;;;7.46;100.00
24558;BME280;12726;49.148;8.582;2023-04-25T02:47:41;99752.84;;;7.51;100.00
24558;BME280;12726;49.148;8.582;2023-04-25T02:50:26;99741.94;;;7.53;100.00
24558;BME280;12726;49.148;8.582;2023-04-25T02:53:12;99749.56;;;7.42;100.00
24558;BME280;12726;49.148;8.582;2023-04-25T02:55:57;99744.00;;;7.44;100.00
24558;BME280;12726;49.148;8.582;2023-04-25T02:58:44;99747.50;;;7.38;100.00
24558;BME280;12726;49.148;8.582;2023-04-25T03:01:30;99746.88;;;7.42;100.00
24558;BME280;12726;49.148;8.582;2023-04-25T03:04:15;99744.59;;;7.39;100.00
24558;BME280;12726;49.148;8.582;2023-04-25T03:07:02;99736.56;;;7.39;100.00
24558;BME280;12726;49.148;8.582;2023-04-25T03:09:48;99745.88;;;7.37;100.00
24558;BME280;12726;49.148;8.582;2023-04-25T03:12:33;99752.44;;;7.34;100.00
24558;BME280;12726;49.148;8.582;2023-04-25T03:15:19;99743.78;;;7.39;100.00
24558;BME280;12726;49.148;8.582;2023-04-25T03:18:05;99734.09;;;7.44;100.00
24558;BME280;12726;49.148;8.582;2023-04-25T03:20:51;99738.66;;;7.31;100.00
24558;BME280;12726;49.148;8.582;2023-04-25T03:23:36;99739.69;;;7.23;100.00
24558;BME280;12726;49.148;8.582;2023-04-25T03:26:22;99740.53;;;7.24;100.00
24558;BME280;12726;49.148;8.582;2023-04-25T03:29:08;99738.25;;;7.14;100.00
24558;BME280;12726;49.148;8.582;2023-04-25T03:31:53;99741.56;;;7.16;100.00
24558;BME280;12726;49.148;8.582;2023-04-25T03:34:40;99738.03;;;7.22;100.00
24558;BME280;12726;49.148;8.582;2023-04-25T03:37:26;99742.97;;;7.19;100.00
24558;BME280;12726;49.148;8.582;2023-04-25T03:40:11;99741.94;;;7.20;100.00
24558;BME280;12726;49.148;8.582;2023-04-25T03:42:57;99750.81;;;7.14;100.00
24558;BME280;12726;49.148;8.582;2023-04-25T03:45:42;99745.06;;;7.10;100.00
24558;BME280;12726;49.148;8.582;2023-04-25T03:48:28;99742.97;;;7.05;100.00
24558;BME280;12726;49.148;8.582;2023-04-25T03:51:14;99744.84;;;6.98;100.00
24558;BME280;12726;49.148;8.582;2023-04-25T03:53:59;99753.06;;;7.03;100.00
24558;BME280;12726;49.148;8.582;2023-04-25T03:56:45;99752.66;;;7.06;100.00
24558;BME280;12726;49.148;8.582;2023-04-25T03:59:30;99748.97;;;7.07;100.00
24558;BME280;12726;49.148;8.582;2023-04-25T04:02:16;99744.22;;;7.03;100.00
24558;BME280;12726;49.148;8.582;2023-04-25T04:05:01;99746.47;;;6.99;100.00
24558;BME280;12726;49.148;8.582;2023-04-25T04:07:48;99740.50;;;6.97;100.00
24558;BME280;12726;49.148;8.582;2023-04-25T04:10:33;99749.59;;;7.03;100.00
24558;BME280;12726;49.148;8.582;2023-04-25T04:13:19;99746.28;;;7.07;100.00
24558;BME280;12726;49.148;8.582;2023-04-25T04:16:05;99759.47;;;7.09;100.00
24558;BME280;12726;49.148;8.582;2023-04-25T04:18:50;99742.16;;;7.05;100.00
24558;BME280;12726;49.148;8.582;2023-04-25T04:21:35;99741.94;;;7.13;100.00
24558;BME280;12726;49.148;8.582;2023-04-25T04:24:22;99744.00;;;7.11;100.00
24558;BME280;12726;49.148;8.582;2023-04-25T04:27:07;99749.16;;;7.13;100.00
24558;BME280;12726;49.148;8.582;2023-04-25T04:29:53;99756.34;;;7.25;100.00
24558;BME280;12726;49.148;8.582;2023-04-25T04:32:38;99754.72;;;7.24;100.00
24558;BME280;12726;49.148;8.582;2023-04-25T04:35:24;99749.56;;;7.29;100.00
24558;BME280;12726;49.148;8.582;2023-04-25T04:38:09;99752.84;;;7.25;100.00
24558;BME280;12726;49.148;8.582;2023-04-25T04:40:57;99757.81;;;7.28;100.00
24558;BME280;12726;49.148;8.582;2023-04-25T04:43:42;99759.47;;;7.29;100.00
24558;BME280;12726;49.148;8.582;2023-04-25T04:46:28;99754.09;;;7.22;100.00
24558;BME280;12726;49.148;8.582;2023-04-25T04:49:14;99761.50;;;7.20;100.00
24558;BME280;12726;49.148;8.582;2023-04-25T04:51:59;99759.25;;;7.24;100.00
24558;BME280;12726;49.148;8.582;2023-04-25T04:54:45;99771.00;;;7.23;100.00
24558;BME280;12726;49.148;8.582;2023-04-25T04:57:32;99769.34;;;7.28;100.00
24558;BME280;12726;49.148;8.582;2023-04-25T05:00:18;99767.88;;;7.32;100.00
24558;BME280;12726;49.148;8.582;2023-04-25T05:03:04;99774.06;;;7.39;100.00
24558;BME280;12726;49.148;8.582;2023-04-25T05:05:50;99778.38;;;7.47;100.00
24558;BME280;12726;49.148;8.582;2023-04-25T05:08:36;99778.81;;;7.51;100.00
24558;BME280;12726;49.148;8.582;2023-04-25T05:11:21;99780.47;;;7.52;100.00
24558;BME280;12726;49.148;8.582;2023-04-25T05:14:08;99780.47;;;7.52;100.00
24558;BME280;12726;49.148;8.582;2023-04-25T05:16:53;99780.84;;;7.62;100.00
24558;BME280;12726;49.148;8.582;2023-04-25T05:19:39;99786.22;;;7.55;100.00
24558;BME280;12726;49.148;8.582;2023-04-25T05:22:24;99782.69;;;7.55;100.00
24558;BME280;12726;49.148;8.582;2023-04-25T05:25:10;99782.09;;;7.59;100.00
24558;BME280;12726;49.148;8.582;2023-04-25T05:27:55;99777.97;;;7.63;100.00
24558;BME280;12726;49.148;8.582;2023-04-25T05:30:42;99778.97;;;7.69;100.00
24558;BME280;12726;49.148;8.582;2023-04-25T05:33:27;99772.38;;;7.78;100.00
24558;BME280;12726;49.148;8.582;2023-04-25T05:36:13;99772.31;;;7.91;100.00
24558;BME280;12726;49.148;8.582;2023-04-25T05:38:58;99786.72;;;8.03;100.00
24558;BME280;12726;49.148;8.582;2023-04-25T05:41:44;99781.75;;;8.13;100.00
24558;BME280;12726;49.148;8.582;2023-04-25T05:44:29;99787.53;;;8.17;100.00
24558;BME280;12726;49.148;8.582;2023-04-25T05:47:16;99782.13;;;8.23;100.00
24558;BME280;12726;49.148;8.582;2023-04-25T05:50:01;99784.16;;;8.35;100.00
24558;BME280;12726;49.148;8.582;2023-04-25T05:52:47;99783.47;;;8.52;100.00
24558;BME280;12726;49.148;8.582;2023-04-25T05:55:32;99785.50;;;8.57;100.00
24558;BME280;12726;49.148;8.582;2023-04-25T05:58:18;99786.75;;;8.54;100.00
24558;BME280;12726;49.148;8.582;2023-04-25T06:01:04;99793.09;;;8.60;100.00
24558;BME280;12726;49.148;8.582;2023-04-25T06:03:51;99786.88;;;8.73;100.00
24558;BME280;12726;49.148;8.582;2023-04-25T06:06:36;99795.28;;;8.76;100.00
24558;BME280;12726;49.148;8.582;2023-04-25T06:09:21;99795.03;;;8.84;100.00
24558;BME280;12726;49.148;8.582;2023-04-25T06:12:07;99797.91;;;8.89;100.00
24558;BME280;12726;49.148;8.582;2023-04-25T06:14:52;99807.13;;;9.00;100.00
24558;BME280;12726;49.148;8.582;2023-04-25T06:17:38;99801.66;;;9.13;100.00
24558;BME280;12726;49.148;8.582;2023-04-25T06:20:25;99811.38;;;9.39;100.00
24558;BME280;12726;49.148;8.582;2023-04-25T06:23:10;99809.78;;;9.56;100.00
24558;BME280;12726;49.148;8.582;2023-04-25T06:25:55;99812.84;;;9.60;100.00
24558;BME280;12726;49.148;8.582;2023-04-25T06:28:41;99816.38;;;9.60;99.92
24558;BME280;12726;49.148;8.582;2023-04-25T06:31:26;99810.41;;;9.58;99.81
24558;BME280;12726;49.148;8.582;2023-04-25T06:34:12;99820.34;;;9.58;98.27
24558;BME280;12726;49.148;8.582;2023-04-25T06:36:59;99810.56;;;9.63;99.24
24558;BME280;12726;49.148;8.582;2023-04-25T06:39:44;99819.66;;;9.62;97.56
24558;BME280;12726;49.148;8.582;2023-04-25T06:42:29;99821.84;;;9.47;98.22
24558;BME280;12726;49.148;8.582;2023-04-25T06:45:15;99818.84;;;9.37;98.90
24558;BME280;12726;49.148;8.582;2023-04-25T06:48:00;99823.00;;;9.33;97.64
24558;BME280;12726;49.148;8.582;2023-04-25T06:50:46;99822.38;;;9.37;98.06
24558;BME280;12726;49.148;8.582;2023-04-25T06:53:32;99819.06;;;9.35;98.38
24558;BME280;12726;49.148;8.582;2023-04-25T06:56:18;99825.63;;;9.39;98.83
24558;BME280;12726;49.148;8.582;2023-04-25T06:59:03;99830.13;;;9.46;97.45
24558;BME280;12726;49.148;8.582;2023-04-25T07:01:49;99827.34;;;9.34;98.57
24558;BME280;12726;49.148;8.582;2023-04-25T07:04:34;99830.84;;;9.34;99.18
24558;BME280;12726;49.148;8.582;2023-04-25T07:07:19;99824.22;;;9.37;100.00
24558;BME280;12726;49.148;8.582;2023-04-25T07:10:06;99826.41;;;9.47;100.00
24558;BME280;12726;49.148;8.582;2023-04-25T07:12:51;99829.28;;;9.52;99.42
24558;BME280;12726;49.148;8.582;2023-04-25T07:15:36;99829.75;;;9.67;99.08
24558;BME280;12726;49.148;8.582;2023-04-25T07:18:22;99835.88;;;9.74;99.34
24558;BME280;12726;49.148;8.582;2023-04-25T07:21:07;99833.66;;;9.71;97.32
24558;BME280;12726;49.148;8.582;2023-04-25T07:23:52;99832.97;;;9.75;96.03
24558;BME280;12726;49.148;8.582;2023-04-25T07:26:39;99822.97;;;9.82;95.54
24558;BME280;12726;49.148;8.582;2023-04-25T07:29:25;99834.28;;;9.91;94.76
24558;BME280;12726;49.148;8.582;2023-04-25T07:32:10;99833.16;;;9.99;95.03
24558;BME280;12726;49.148;8.582;2023-04-25T07:34:57;99838.91;;;10.02;95.47
24558;BME280;12726;49.148;8.582;2023-04-25T07:37:43;99842.53;;;10.14;94.81
24558;BME280;12726;49.148;8.582;2023-04-25T07:40:28;99843.75;;;10.18;95.28
24558;BME280;12726;49.148;8.582;2023-04-25T07:43:15;99839.59;;;10.16;95.47
24558;BME280;12726;49.148;8.582;2023-04-25T07:46:00;99838.81;;;10.34;93.22
24558;BME280;12726;49.148;8.582;2023-04-25T07:48:46;99838.22;;;10.32;92.55
24558;BME280;12726;49.148;8.582;2023-04-25T07:51:31;99844.56;;;10.19;93.12
24558;BME280;12726;49.148;8.582;2023-04-25T07:54:17;99853.34;;;10.08;93.42
24558;BME280;12726;49.148;8.582;2023-04-25T07:57:02;99855.72;;;9.98;94.23
24558;BME280;12726;49.148;8.582;2023-04-25T07:59:49;99856.81;;;9.90;94.49
24558;BME280;12726;49.148;8.582;2023-04-25T08:02:34;99861.56;;;9.70;95.71
24558;BME280;12726;49.148;8.582;2023-04-25T08:05:20;99868.03;;;9.37;96.92
24558;BME280;12726;49.148;8.582;2023-04-25T08:08:05;99869.28;;;9.35;98.00
24558;BME280;12726;49.148;8.582;2023-04-25T08:10:51;99874.75;;;9.22;98.22
24558;BME280;12726;49.148;8.582;2023-04-25T08:13:37;99881.63;;;9.11;99.56
24558;BME280;12726;49.148;8.582;2023-04-25T08:16:23;99885.16;;;9.05;100.00
24558;BME280;12726;49.148;8.582;2023-04-25T08:19:09;99878.19;;;8.97;98.53
24558;BME280;12726;49.148;8.582;2023-04-25T08:21:55;99888.84;;;8.73;93.91
24558;BME280;12726;49.148;8.582;2023-04-25T08:24:41;99897.34;;;8.63;95.46
24558;BME280;12726;49.148;8.582;2023-04-25T08:27:26;99905.81;;;8.60;98.17
24558;BME280;12726;49.148;8.582;2023-04-25T08:30:12;99917.81;;;8.57;100.00
24558;BME280;12726;49.148;8.582;2023-04-25T08:32:59;99925.88;;;8.51;100.00
24558;BME280;12726;49.148;8.582;2023-04-25T08:35:44;99930.41;;;8.50;100.00
24558;BME280;12726;49.148;8.582;2023-04-25T08:38:29;99922.19;;;8.32;100.00
24558;BME280;12726;49.148;8.582;2023-04-25T08:41:15;99935.59;;;8.32;100.00
24558;BME280;12726;49.148;8.582;2023-04-25T08:44:02;99938.91;;;8.34;100.00
24558;BME280;12726;49.148;8.582;2023-04-25T08:46:49;99946.72;;;8.42;100.00
24558;BME280;12726;49.148;8.582;2023-04-25T08:49:36;99943.00;;;8.50;100.00
24558;BME280;12726;49.148;8.582;2023-04-25T08:52:23;99954.34;;;8.58;100.00
24558;BME280;12726;49.148;8.582;2023-04-25T08:55:09;99952.22;;;8.67;100.00
24558;BME280;12726;49.148;8.582;2023-04-25T08:57:56;99947.88;;;8.79;100.00
24558;BME280;12726;49.148;8.582;2023-04-25T09:00:42;99955.69;;;8.87;100.00
24558;BME280;12726;49.148;8.582;2023-04-25T09:03:27;99956.84;;;9.04;100.00
24558;BME280;12726;49.148;8.582;2023-04-25T09:06:14;99960.50;;;9.17;100.00
24558;BME280;12726;49.148;8.582;2023-04-25T09:09:06;99969.28;;;9.37;100.00
24558;BME280;12726;49.148;8.582;2023-04-25T09:11:54;99970.66;;;9.46;99.34
24558;BME280;12726;49.148;8.582;2023-04-25T09:14:39;99976.47;;;9.74;99.68
24558;BME280;12726;49.148;8.582;2023-04-25T09:17:26;99982.69;;;9.75;97.85
24558;BME280;12726;49.148;8.582;2023-04-25T09:20:13;99991.31;;;9.83;98.85
24558;BME280;12726;49.148;8.582;2023-04-25T09:23:04;99992.25;;;9.96;93.52
24558;BME280;12726;49.148;8.582;2023-04-25T09:25:52;99994.63;;;10.10;89.07
24558;BME280;12726;49.148;8.582;2023-04-25T09:28:38;100001.84;;;10.41;89.99
24558;BME280;12726;49.148;8.582;2023-04-25T09:31:23;100001.28;;;10.57;88.08
24558;BME280;12726;49.148;8.582;2023-04-25T09:34:09;100006.31;;;10.72;88.30
24558;BME280;12726;49.148;8.582;2023-04-25T09:37:01;100013.13;;;10.93;88.63
24558;BME280;12726;49.148;8.582;2023-04-25T09:39:48;100009.47;;;11.06;84.85
24558;BME280;12726;49.148;8.582;2023-04-25T09:42:34;100015.66;;;11.24;80.87
24558;BME280;12726;49.148;8.582;2023-04-25T09:45:19;100022.69;;;11.25;82.88
24558;BME280;12726;49.148;8.582;2023-04-25T09:48:05;100025.69;;;11.17;81.38
24558;BME280;12726;49.148;8.582;2023-04-25T09:51:07;100032.13;;;11.16;81.14
24558;BME280;12726;49.148;8.582;2023-04-25T09:53:52;100029.66;;;11.15;82.33
24558;BME280;12726;49.148;8.582;2023-04-25T09:56:39;100037.88;;;11.02;81.73
24558;BME280;12726;49.148;8.582;2023-04-25T09:59:25;100034.75;;;10.86;82.01
24558;BME280;12726;49.148;8.582;2023-04-25T10:02:11;100038.63;;;10.90;84.58
24558;BME280;12726;49.148;8.582;2023-04-25T10:04:56;100040.00;;;10.99;82.19
24558;BME280;12726;49.148;8.582;2023-04-25T10:07:42;100038.94;;;11.19;81.54
24558;BME280;12726;49.148;8.582;2023-04-25T10:10:29;100041.91;;;11.47;80.06
24558;BME280;12726;49.148;8.582;2023-04-25T10:13:22;100037.38;;;11.77;79.66
24558;BME280;12726;49.148;8.582;2023-04-25T10:16:08;100045.06;;;11.92;75.68
24558;BME280;12726;49.148;8.582;2023-04-25T10:18:54;100055.28;;;12.02;77.50
24558;BME280;12726;49.148;8.582;2023-04-25T10:21:46;100053.41;;;11.54;75.72
24558;BME280;12726;49.148;8.582;2023-04-25T10:24:34;100044.75;;;11.34;77.39
24558;BME280;12726;49.148;8.582;2023-04-25T10:27:20;100057.19;;;11.35;77.76
24558;BME280;12726;49.148;8.582;2023-04-25T10:30:10;100062.06;;;11.26;81.89
24558;BME280;12726;49.148;8.582;2023-04-25T10:32:56;100058.19;;;11.22;80.23
24558;BME280;12726;49.148;8.582;2023-04-25T10:35:41;100061.31;;;11.01;81.13
24558;BME280;12726;49.148;8.582;2023-04-25T10:38:27;100057.13;;;10.87;79.34
24558;BME280;12726;49.148;8.582;2023-04-25T10:41:13;100066.19;;;10.68;78.77
24558;BME280;12726;49.148;8.582;2023-04-25T10:43:59;100066.59;;;10.71;81.34
24558;BME280;12726;49.148;8.582;2023-04-25T10:46:47;100065.31;;;10.74;80.00
24558;BME280;12726;49.148;8.582;2023-04-25T10:49:34;100066.06;;;10.81;80.97
24558;BME280;12726;49.148;8.582;2023-04-25T10:52:25;100075.75;;;11.07;80.03
24558;BME280;12726;49.148;8.582;2023-04-25T10:55:10;100075.06;;;11.11;80.90
24558;BME280;12726;49.148;8.582;2023-04-25T10:57:56;100082.56;;;11.09;80.91
24558;BME280;12726;49.148;8.582;2023-04-25T11:00:41;100082.72;;;11.14;80.42
24558;BME280;12726;49.148;8.582;2023-04-25T11:03:28;100081.97;;;11.25;81.11
24558;BME280;12726;49.148;8.582;2023-04-25T11:06:22;100084.50;;;11.38;80.29
24558;BME280;12726;49.148;8.582;2023-04-25T11:09:10;100086.72;;;11.60;79.39
24558;BME280;12726;49.148;8.582;2023-04-25T11:11:58;100081.56;;;12.06;79.13
24558;BME280;12726;49.148;8.582;2023-04-25T11:14:43;100081.69;;;12.00;77.07
24558;BME280;12726;49.148;8.582;2023-04-25T11:17:29;100090.94;;;12.04;76.43
24558;BME280;12726;49.148;8.582;2023-04-25T11:20:16;100095.47;;;11.73;78.01
24558;BME280;12726;49.148;8.582;2023-04-25T11:23:02;100094.06;;;11.53;79.04
24558;BME280;12726;49.148;8.582;2023-04-25T11:25:47;100093.88;;;11.36;79.23
24558;BME280;12726;49.148;8.582;2023-04-25T11:28:32;100089.75;;;11.33;80.81
24558;BME280;12726;49.148;8.582;2023-04-25T11:31:20;100098.97;;;11.08;79.17
24558;BME280;12726;49.148;8.582;2023-04-25T11:34:06;100098.44;;;10.99;80.95
24558;BME280;12726;49.148;8.582;2023-04-25T11:36:53;100093.31;;;10.91;84.22
24558;BME280;12726;49.148;8.582;2023-04-25T11:39:38;100094.22;;;11.03;85.70
24558;BME280;12726;49.148;8.582;2023-04-25T11:42:24;100101.84;;;10.88;83.23
24558;BME280;12726;49.148;8.582;2023-04-25T11:45:09;100107.53;;;10.80;84.77
24558;BME280;12726;49.148;8.582;2023-04-25T11:47:54;100106.38;;;10.87;84.27
24558;BME280;12726;49.148;8.582;2023-04-25T11:50:39;100116.59;;;11.04;85.23
24558;BME280;12726;49.148;8.582;2023-04-25T11:53:26;100117.44;;;11.04;87.92
24558;BME280;12726;49.148;8.582;2023-04-25T11:56:12;100117.75;;;11.32;88.71
24558;BME280;12726;49.148;8.582;2023-04-25T11:58:59;100121.25;;;11.69;85.12
24558;BME280;12726;49.148;8.582;2023-04-25T12:01:48;100122.81;;;11.95;85.93
24558;BME280;12726;49.148;8.582;2023-04-25T12:04:34;100118.56;;;12.18;86.54
24558;BME280;12726;49.148;8.582;2023-04-25T12:07:19;100130.09;;;12.25;84.75
24558;BME280;12726;49.148;8.582;2023-04-25T12:10:10;100127.81;;;12.10;85.67
24558;BME280;12726;49.148;8.582;2023-04-25T12:12:58;100129.56;;;12.16;83.18
24558;BME280;12726;49.148;8.582;2023-04-25T12:15:49;100130.81;;;12.32;81.98
24558;BME280;12726;49.148;8.582;2023-04-25T12:18:35;100132.13;;;12.41;82.78
24558;BME280;12726;49.148;8.582;2023-04-25T12:21:21;100124.31;;;12.63;81.60
24558;BME280;12726;49.148;8.582;2023-04-25T12:24:10;100118.53;;;12.47;78.29
24558;BME280;12726;49.148;8.582;2023-04-25T12:27:01;100128.50;;;12.47;77.98
24558;BME280;12726;49.148;8.582;2023-04-25T12:29:51;100121.94;;;12.43;76.10
24558;BME280;12726;49.148;8.582;2023-04-25T12:32:36;100124.03;;;12.52;77.22
24558;BME280;12726;49.148;8.582;2023-04-25T12:35:22;100125.50;;;12.25;76.89
24558;BME280;12726;49.148;8.582;2023-04-25T12:38:08;100119.34;;;12.06;80.22
24558;BME280;12726;49.148;8.582;2023-04-25T12:40:53;100125.09;;;11.62;79.25
24558;BME280;12726;49.148;8.582;2023-04-25T12:43:41;100123.16;;;11.32;81.98
24558;BME280;12726;49.148;8.582;2023-04-25T12:46:26;100131.34;;;11.01;82.65
24558;BME280;12726;49.148;8.582;2023-04-25T12:49:11;100131.97;;;10.78;83.08
24558;BME280;12726;49.148;8.582;2023-04-25T12:51:57;100135.88;;;10.57;85.23
24558;BME280;12726;49.148;8.582;2023-04-25T12:54:42;100129.44;;;10.58;87.31
24558;BME280;12726;49.148;8.582;2023-04-25T12:57:27;100138.31;;;10.66;89.11
24558;BME280;12726;49.148;8.582;2023-04-25T13:00:15;100143.50;;;10.85;88.63
24558;BME280;12726;49.148;8.582;2023-04-25T13:03:02;100143.66;;;10.90;87.28
24558;BME280;12726;49.148;8.582;2023-04-25T13:05:48;100154.09;;;11.05;86.74
24558;BME280;12726;49.148;8.582;2023-04-25T13:08:34;100143.81;;;11.20;85.84
24558;BME280;12726;49.148;8.582;2023-04-25T13:11:21;100151.06;;;11.38;84.81
24558;BME280;12726;49.148;8.582;2023-04-25T13:14:06;100150.31;;;11.67;83.77
24558;BME280;12726;49.148;8.582;2023-04-25T13:16:53;100150.41;;;11.97;83.93
24558;BME280;12726;49.148;8.582;2023-04-25T13:19:38;100140.88;;;12.25;80.48
24558;BME280;12726;49.148;8.582;2023-04-25T13:22:24;100140.06;;;12.24;78.88
24558;BME280;12726;49.148;8.582;2023-04-25T13:25:09;100141.13;;;11.75;80.41
24558;BME280;12726;49.148;8.582;2023-04-25T13:27:55;100140.97;;;11.70;79.77
24558;BME280;12726;49.148;8.582;2023-04-25T13:30:40;100143.13;;;11.61;81.13
24558;BME280;12726;49.148;8.582;2023-04-25T13:33:27;100153.25;;;11.48;82.75
24558;BME280;12726;49.148;8.582;2023-04-25T13:36:12;100151.00;;;11.45;81.79
24558;BME280;12726;49.148;8.582;2023-04-25T13:38:58;100149.22;;;11.75;81.06
24558;BME280;12726;49.148;8.582;2023-04-25T13:41:43;100155.91;;;12.21;79.33
24558;BME280;12726;49.148;8.582;2023-04-25T13:44:29;100162.28;;;12.38;76.19
24558;BME280;12726;49.148;8.582;2023-04-25T13:47:14;100145.03;;;12.39;75.94
24558;BME280;12726;49.148;8.582;2023-04-25T13:50:01;100141.09;;;12.65;71.64
24558;BME280;12726;49.148;8.582;2023-04-25T13:52:47;100147.91;;;12.79;73.45
24558;BME280;12726;49.148;8.582;2023-04-25T13:55:34;100146.69;;;12.51;70.36
24558;BME280;12726;49.148;8.582;2023-04-25T13:58:19;100149.00;;;12.36;70.37
24558;BME280;12726;49.148;8.582;2023-04-25T14:01:04;100146.50;;;12.23;73.85
24558;BME280;12726;49.148;8.582;2023-04-25T14:03:50;100148.56;;;12.09;75.91
24558;BME280;12726;49.148;8.582;2023-04-25T14:06:37;100154.75;;;11.98;73.43
24558;BME280;12726;49.148;8.582;2023-04-25T14:09:22;100151.78;;;12.18;72.33
24558;BME280;12726;49.148;8.582;2023-04-25T14:12:09;100140.69;;;12.38;69.21
24558;BME280;12726;49.148;8.582;2023-04-25T14:14:54;100155.28;;;12.48;66.26
24558;BME280;12726;49.148;8.582;2023-04-25T14:17:40;100148.34;;;12.52;66.08
24558;BME280;12726;49.148;8.582;2023-04-25T14:20:25;100149.16;;;12.41;64.64
24558;BME280;12726;49.148;8.582;2023-04-25T14:23:12;100151.03;;;12.41;66.77
24558;BME280;12726;49.148;8.582;2023-04-25T14:25:57;100152.06;;;12.40;65.60
24558;BME280;12726;49.148;8.582;2023-04-25T14:28:43;100155.00;;;12.38;65.26
24558;BME280;12726;49.148;8.582;2023-04-25T14:31:28;100148.88;;;12.31;63.52
24558;BME280;12726;49.148;8.582;2023-04-25T14:34:13;100159.78;;;12.25;64.27
24558;BME280;12726;49.148;8.582;2023-04-25T14:36:59;100147.63;;;12.45;62.19